Time;durP1;ratioP1;P1;durP2;ratioP2;P2;SDS_P1;SDS_P2;PMS_P1;PMS_P2;Temp;Humidity;BMP_temperature;BMP_pressure;BME280_temperature;BME280_humidity;BME280_pressure;Samples;Min_cycle;Max_cycle;Signal;HPM_P1;HPM_P2
2022/06/15 04:01:25;;;;;;;10.93;7.97;;;11.80;99.90;;;;;;5488483;23;20055;-75
2022/06/15 04:03:51;;;;;;;13.43;7.85;;;11.80;99.90;;;;;;4961490;28;20052;-74
2022/06/15 04:06:16;;;;;;;11.77;8.15;;;11.80;99.90;;;;;;4960648;28;20036;-75
2022/06/15 04:08:42;;;;;;;10.80;7.95;;;11.80;99.90;;;;;;4960941;28;20039;-74
2022/06/15 04:14:01;;;;;;;9.05;7.53;;;11.90;99.90;;;;;;4960971;28;20035;-74
2022/06/15 04:16:27;;;;;;;9.25;7.78;;;12.00;99.90;;;;;;4992377;23;20102;-77
2022/06/15 04:18:53;;;;;;;10.50;7.68;;;12.00;99.90;;;;;;4975574;28;20043;-77
2022/06/15 04:21:18;;;;;;;8.77;7.40;;;12.00;99.90;;;;;;4975065;28;20023;-78
2022/06/15 04:23:44;;;;;;;10.63;7.30;;;12.00;99.90;;;;;;4976348;28;20501;-77
2022/06/15 04:26:10;;;;;;;9.90;7.72;;;12.00;99.90;;;;;;4976210;28;20047;-77
2022/06/15 04:28:41;;;;;;;9.95;7.63;;;12.00;99.90;;;;;;4976864;28;20035;-77
2022/06/15 04:31:07;;;;;;;11.00;7.65;;;12.00;99.90;;;;;;4975033;28;20477;-77
2022/06/15 04:33:33;;;;;;;10.45;8.05;;;12.10;99.90;;;;;;4975144;28;20035;-77
2022/06/15 04:35:58;;;;;;;10.60;7.75;;;12.10;99.90;;;;;;4976300;28;20058;-77
2022/06/15 04:38:25;;;;;;;11.30;8.35;;;12.20;99.90;;;;;;4976405;28;20034;-77
2022/06/15 04:40:51;;;;;;;9.25;7.47;;;12.30;99.90;;;;;;4975364;28;20085;-77
2022/06/15 04:43:16;;;;;;;12.88;7.95;;;12.40;99.90;;;;;;4975032;28;20047;-77
2022/06/15 04:45:42;;;;;;;11.55;7.75;;;12.40;99.90;;;;;;4974794;28;20032;-78
2022/06/15 04:48:11;;;;;;;13.10;8.40;;;12.40;99.90;;;;;;4976250;28;20167;-77
2022/06/15 04:50:38;;;;;;;14.10;8.75;;;12.50;99.90;;;;;;4974784;28;20114;-77
2022/06/15 04:53:05;;;;;;;10.65;8.00;;;12.50;99.90;;;;;;4976531;28;20039;-77
2022/06/15 04:55:32;;;;;;;12.43;8.40;;;12.60;99.90;;;;;;4975350;28;20023;-76
2022/06/15 04:57:59;;;;;;;12.57;7.65;;;12.60;99.90;;;;;;4975016;28;20768;-75
2022/06/15 05:00:28;;;;;;;11.13;7.38;;;12.80;99.90;;;;;;4974196;28;20032;-75
2022/06/15 05:02:54;;;;;;;9.45;6.68;;;12.80;99.90;;;;;;4975339;28;20480;-74
2022/06/15 05:05:19;;;;;;;9.80;6.72;;;12.90;99.90;;;;;;4975199;28;20106;-75
2022/06/15 05:07:45;;;;;;;12.40;6.35;;;13.10;99.90;;;;;;4973312;28;20091;-76
2022/06/15 05:10:18;;;;;;;11.32;6.65;;;13.30;99.90;;;;;;4973465;28;20035;-75
2022/06/15 05:12:44;;;;;;;8.30;6.50;;;13.50;99.90;;;;;;4973248;28;20509;-77
2022/06/15 05:15:13;;;;;;;12.95;6.55;;;13.70;99.90;;;;;;4974285;28;20035;-81
2022/06/15 05:17:39;;;;;;;10.57;6.43;;;13.90;99.90;;;;;;4974401;28;20163;-77
2022/06/15 05:20:06;;;;;;;8.30;5.72;;;14.00;99.90;;;;;;4975117;28;20035;-76
2022/06/15 05:22:31;;;;;;;7.90;6.07;;;14.00;99.90;;;;;;4974392;28;20453;-76
2022/06/15 05:24:57;;;;;;;8.32;6.45;;;14.20;99.90;;;;;;4975218;28;20038;-76
2022/06/15 05:27:22;;;;;;;9.52;6.72;;;14.20;99.90;;;;;;4976878;28;20094;-77
2022/06/15 05:29:48;;;;;;;12.63;6.93;;;14.40;99.90;;;;;;4978206;28;20031;-77
2022/06/15 05:32:14;;;;;;;9.82;6.43;;;14.50;99.90;;;;;;4977989;28;20044;-76
2022/06/15 05:34:40;;;;;;;13.48;6.88;;;14.60;99.90;;;;;;4977929;28;20041;-75
2022/06/15 05:37:06;;;;;;;11.60;6.47;;;14.70;99.90;;;;;;4976124;28;20504;-76
2022/06/15 05:39:31;;;;;;;11.98;6.20;;;14.80;99.90;;;;;;4978190;28;20089;-77
2022/06/15 05:41:57;;;;;;;9.50;6.95;;;15.00;99.90;;;;;;4976486;28;20066;-76
2022/06/15 05:47:05;;;;;;;10.35;6.35;;;15.20;99.90;;;;;;4977091;28;20126;-77
2022/06/15 05:49:31;;;;;;;10.40;6.60;;;15.30;99.90;;;;;;4977441;28;20489;-77
2022/06/15 05:51:56;;;;;;;9.50;6.15;;;15.40;99.90;;;;;;4981402;28;20035;-76
2022/06/15 05:54:22;;;;;;;9.90;5.90;;;15.60;99.90;;;;;;4976085;28;20043;-76
2022/06/15 05:56:48;;;;;;;9.73;6.00;;;15.70;99.90;;;;;;4975982;28;20043;-76
2022/06/15 05:59:14;;;;;;;11.85;6.38;;;15.80;99.90;;;;;;4977576;28;20489;-76
2022/06/15 06:01:40;;;;;;;8.13;5.90;;;15.90;99.90;;;;;;4977876;28;20039;-77
2022/06/15 06:04:06;;;;;;;8.85;6.13;;;16.00;99.90;;;;;;4977891;28;20450;-76
2022/06/15 06:06:32;;;;;;;9.35;5.80;;;16.20;99.90;;;;;;4975158;28;20031;-76
2022/06/15 06:08:58;;;;;;;7.93;5.28;;;16.30;99.90;;;;;;4977805;28;20031;-76
2022/06/15 06:11:25;;;;;;;9.10;5.80;;;16.40;99.90;;;;;;4977490;28;20459;-75
2022/06/15 06:13:51;;;;;;;7.97;5.22;;;16.50;99.90;;;;;;4976913;28;20039;-75
2022/06/15 06:16:18;;;;;;;7.85;5.20;;;16.60;99.90;;;;;;4976936;28;20470;-75
2022/06/15 06:18:44;;;;;;;9.40;5.10;;;16.70;99.90;;;;;;4977624;28;20062;-76
2022/06/15 06:21:10;;;;;;;8.05;5.15;;;16.80;99.90;;;;;;4977157;28;20035;-75
2022/06/15 06:23:36;;;;;;;7.95;5.40;;;16.90;99.90;;;;;;4977085;28;20044;-75
2022/06/15 06:26:03;;;;;;;7.18;5.18;;;17.00;99.90;;;;;;4975213;28;20493;-75
2022/06/15 06:28:35;;;;;;;7.35;4.88;;;17.10;99.90;;;;;;4977016;28;20063;-75
2022/06/15 06:31:03;;;;;;;8.18;5.20;;;17.30;99.90;;;;;;4977072;28;20063;-76
2022/06/15 06:33:31;;;;;;;7.30;5.10;;;17.40;99.90;;;;;;4977001;28;20087;-75
2022/06/15 06:35:59;;;;;;;9.10;4.70;;;17.50;99.90;;;;;;4975163;28;20039;-75
2022/06/15 06:38:25;;;;;;;8.32;5.07;;;17.70;99.90;;;;;;4975484;28;20066;-75
2022/06/15 06:40:55;;;;;;;7.05;4.47;;;17.80;99.90;;;;;;4976939;28;20039;-75
2022/06/15 06:43:21;;;;;;;7.68;5.10;;;17.90;99.90;;;;;;4975310;28;20453;-75
2022/06/15 06:45:48;;;;;;;7.40;4.43;;;18.00;99.90;;;;;;4976435;28;20031;-76
2022/06/15 06:48:14;;;;;;;6.93;4.60;;;18.30;99.90;;;;;;4976503;28;20039;-76
2022/06/15 06:50:40;;;;;;;7.35;4.85;;;18.30;99.90;;;;;;4976720;28;20039;-76
2022/06/15 06:53:11;;;;;;;5.93;4.18;;;18.60;99.90;;;;;;4976573;28;20114;-75
2022/06/15 06:55:36;;;;;;;7.10;4.13;;;18.80;99.90;;;;;;4975756;28;20063;-76
2022/06/15 06:58:03;;;;;;;6.28;4.32;;;19.00;99.90;;;;;;4976743;28;20477;-75
2022/06/15 07:00:30;;;;;;;7.28;4.22;;;19.20;99.90;;;;;;4976822;28;20043;-76
2022/06/15 07:02:58;;;;;;;7.03;4.10;;;19.40;99.90;;;;;;4976539;28;20035;-76
2022/06/15 07:05:24;;;;;;;6.35;4.20;;;19.60;99.90;;;;;;4976569;28;20039;-76
2022/06/15 07:07:49;;;;;;;10.43;4.20;;;19.90;99.90;;;;;;4976278;28;20063;-76
2022/06/15 07:10:15;;;;;;;6.80;3.90;;;20.00;99.90;;;;;;4976219;28;20038;-76
2022/06/15 07:12:42;;;;;;;7.60;3.92;;;20.20;99.90;;;;;;4974866;28;20035;-75
2022/06/15 07:15:09;;;;;;;7.32;4.10;;;20.40;99.90;;;;;;4975808;28;20520;-76
2022/06/15 07:17:35;;;;;;;7.22;3.72;;;20.60;99.90;;;;;;4976124;28;20039;-76
2022/06/15 07:20:01;;;;;;;11.63;4.00;;;20.70;99.90;;;;;;4976161;28;20039;-76
2022/06/15 07:22:26;;;;;;;4.60;3.75;;;21.00;99.20;;;;;;4974620;28;20098;-76
2022/06/15 07:24:52;;;;;;;5.43;3.80;;;21.10;98.80;;;;;;4976225;28;20038;-76
2022/06/15 07:27:17;;;;;;;5.45;3.67;;;21.20;98.70;;;;;;4973883;28;20437;-76
2022/06/15 07:29:46;;;;;;;5.47;3.67;;;21.40;97.10;;;;;;4975749;28;20544;-76
2022/06/15 07:32:13;;;;;;;6.00;3.85;;;21.70;96.80;;;;;;4976167;28;20122;-76
2022/06/15 07:34:39;;;;;;;5.82;3.83;;;22.00;95.90;;;;;;4976415;28;20062;-76
2022/06/15 07:37:05;;;;;;;5.72;3.67;;;22.30;95.40;;;;;;4975488;28;20046;-76
2022/06/15 07:39:31;;;;;;;5.15;3.72;;;22.50;93.90;;;;;;4976140;28;20394;-76
2022/06/15 07:41:57;;;;;;;7.75;3.88;;;22.80;93.50;;;;;;4975987;28;20405;-76
2022/06/15 07:44:25;;;;;;;7.38;3.70;;;23.10;92.20;;;;;;4975821;28;20039;-76
2022/06/15 07:49:54;;;;;;;5.57;4.13;;;23.30;90.80;;;;;;4975595;28;20043;-76
2022/06/15 07:52:40;;;;;;;5.40;3.80;;;23.50;91.60;;;;;;4976192;28;20517;-76
2022/06/15 07:55:09;;;;;;;4.72;3.63;;;23.80;90.10;;;;;;4975577;28;20051;-76
2022/06/15 07:57:36;;;;;;;6.60;3.80;;;24.20;88.70;;;;;;4973617;28;20531;-76
2022/06/15 08:00:03;;;;;;;5.57;3.33;;;24.20;87.10;;;;;;4975563;28;20039;-76
2022/06/15 08:02:29;;;;;;;4.30;3.33;;;24.40;85.80;;;;;;4975537;28;20074;-77
2022/06/15 08:04:54;;;;;;;5.22;3.60;;;24.60;84.40;;;;;;4973695;28;20877;-76
2022/06/15 08:07:20;;;;;;;4.90;3.60;;;24.60;83.30;;;;;;4975415;28;20086;-77
2022/06/15 08:09:45;;;;;;;5.18;3.55;;;24.70;83.60;;;;;;4975738;28;20039;-77
2022/06/15 08:12:12;;;;;;;6.03;3.50;;;24.90;81.30;;;;;;4975634;28;20102;-76
2022/06/15 08:14:47;;;;;;;7.60;3.65;;;25.00;80.10;;;;;;4975666;28;20035;-76
2022/06/15 08:17:21;;;;;;;4.75;3.25;;;25.00;79.80;;;;;;4973757;28;20035;-76
2022/06/15 08:19:51;;;;;;;6.40;3.40;;;25.20;83.80;;;;;;4975498;28;20044;-76
2022/06/15 08:22:19;;;;;;;4.20;3.55;;;25.50;80.00;;;;;;4975455;28;20089;-76
2022/06/15 08:24:45;;;;;;;5.22;3.40;;;25.40;76.40;;;;;;4973831;28;20523;-76
2022/06/15 08:27:13;;;;;;;5.50;3.63;;;25.40;78.20;;;;;;4975065;28;20035;-76
2022/06/15 08:29:40;;;;;;;4.93;3.55;;;25.60;78.20;;;;;;4975408;28;20067;-77
2022/06/15 08:32:07;;;;;;;6.82;3.92;;;25.70;81.80;;;;;;4975507;28;20039;-77
2022/06/15 08:34:36;;;;;;;4.50;3.58;;;25.60;76.40;;;;;;4975418;28;20038;-76
2022/06/15 08:37:04;;;;;;;6.80;3.40;;;25.70;76.80;;;;;;4974925;28;20453;-77
2022/06/15 08:39:30;;;;;;;6.95;4.25;;;26.00;76.30;;;;;;4973973;28;20040;-74
2022/06/15 08:42:01;;;;;;;5.90;3.83;;;26.00;78.00;;;;;;4975313;28;20035;-75
2022/06/15 08:44:55;;;;;;;6.90;3.60;;;26.40;76.00;;;;;;4973941;28;20039;-74
2022/06/15 08:48:02;;;;;;;5.70;3.80;;;26.50;76.90;;;;;;4973607;28;20031;-74
2022/06/15 08:50:32;;;;;;;7.38;3.80;;;26.90;74.40;;;;;;4975251;28;20075;-75
2022/06/15 08:53:23;;;;;;;7.50;3.30;;;27.00;74.10;;;;;;4973639;28;20035;-74
2022/06/15 08:56:03;;;;;;;6.20;3.30;;;27.00;74.90;;;;;;4975064;28;20038;-74
2022/06/15 08:59:04;;;;;;;5.32;3.30;;;27.30;71.80;;;;;;4975282;28;20497;-74
2022/06/15 09:01:45;;;;;;;5.57;3.30;;;27.70;71.00;;;;;;4976384;28;20043;-74
2022/06/15 09:04:18;;;;;;;4.88;3.20;;;27.70;72.40;;;;;;4978261;28;20066;-74
2022/06/15 09:07:05;;;;;;;7.70;3.53;;;27.90;70.60;;;;;;4977978;28;20405;-75
2022/06/15 09:09:45;;;;;;;6.03;3.53;;;28.20;70.80;;;;;;4978565;28;20028;-74
2022/06/15 09:12:49;;;;;;;4.72;3.45;;;28.10;71.40;;;;;;4976812;28;20520;-74
2022/06/15 09:15:39;;;;;;;7.65;3.38;;;28.10;68.70;;;;;;4976195;28;20036;-74
2022/06/15 09:18:12;;;;;;;4.20;3.17;;;28.30;70.20;;;;;;4976951;28;20035;-74
2022/06/15 09:21:05;;;;;;;4.35;3.25;;;28.10;71.70;;;;;;4976900;28;20031;-73
2022/06/15 09:23:40;;;;;;;4.38;3.10;;;28.20;73.50;;;;;;4979171;28;20058;-74
2022/06/15 09:26:11;;;;;;;5.65;3.45;;;27.90;68.30;;;;;;4977918;28;20128;-73
2022/06/15 09:28:44;;;;;;;4.78;3.42;;;28.20;68.50;;;;;;4993789;28;20572;-74
2022/06/15 09:31:19;;;;;;;6.35;3.22;;;28.40;68.40;;;;;;4997857;28;20035;-73
2022/06/15 09:33:51;;;;;;;6.75;3.30;;;28.20;71.90;;;;;;4997148;28;20165;-74
2022/06/15 09:36:21;;;;;;;7.57;3.88;;;28.00;67.50;;;;;;4997499;28;20030;-74
2022/06/15 09:38:47;;;;;;;5.38;3.88;;;28.10;70.00;;;;;;4997748;28;20461;-74
2022/06/15 09:41:21;;;;;;;6.88;3.35;;;27.90;70.40;;;;;;4997078;28;20061;-76
2022/06/15 09:44:09;;;;;;;6.35;3.35;;;28.20;71.80;;;;;;4995696;28;20405;-76
2022/06/15 09:46:53;;;;;;;7.22;3.30;;;28.70;69.40;;;;;;4995688;28;20104;-76
2022/06/15 09:49:47;;;;;;;5.20;3.30;;;29.20;65.70;;;;;;4997587;28;20035;-76
2022/06/15 09:52:33;;;;;;;8.10;3.80;;;29.40;64.70;;;;;;4995946;28;20027;-76
2022/06/15 09:55:13;;;;;;;5.72;3.50;;;29.60;64.60;;;;;;4995641;28;20041;-77
2022/06/15 09:57:40;;;;;;;4.22;3.38;;;29.50;64.00;;;;;;4996399;28;20122;-76
2022/06/15 10:00:09;;;;;;;6.10;3.20;;;29.50;63.40;;;;;;4995551;28;20511;-76
2022/06/15 10:02:38;;;;;;;7.30;3.45;;;29.20;65.10;;;;;;4997133;28;20572;-76
2022/06/15 10:05:07;;;;;;;8.85;3.50;;;29.40;67.50;;;;;;4996704;28;20508;-77
2022/06/15 10:07:40;;;;;;;6.85;3.50;;;29.60;65.40;;;;;;4995225;28;20472;-77
2022/06/15 10:10:21;;;;;;;10.35;3.65;;;29.80;64.30;;;;;;4996982;28;20062;-77
2022/06/15 10:12:56;;;;;;;5.03;3.10;;;30.00;64.90;;;;;;4995300;28;20035;-75
2022/06/15 10:17:55;;;;;;;4.40;3.28;;;29.70;62.20;;;;;;4996105;23;40911;-74
2022/06/15 10:20:30;;;;;;;5.45;3.10;;;29.40;66.80;;;;;;4976576;28;20039;-74
2022/06/15 10:22:57;;;;;;;4.93;3.08;;;29.20;63.40;;;;;;4976057;28;20035;-72
2022/06/15 10:25:24;;;;;;;5.40;3.38;;;29.40;63.00;;;;;;4958451;28;20043;-74
2022/06/15 10:27:51;;;;;;;6.53;3.22;;;29.30;64.90;;;;;;4956664;28;20095;-74
2022/06/15 10:30:22;;;;;;;4.90;3.45;;;29.20;65.90;;;;;;4957854;28;20072;-73
2022/06/15 10:33:01;;;;;;;4.93;3.10;;;29.30;60.80;;;;;;4958045;28;20043;-73
2022/06/15 10:35:30;;;;;;;5.30;3.00;;;29.40;64.10;;;;;;4957536;28;20035;-73
2022/06/15 10:37:59;;;;;;;5.07;3.28;;;29.50;61.00;;;;;;4955967;28;20040;-73
2022/06/15 10:40:31;;;;;;;7.05;3.33;;;29.60;61.60;;;;;;4957630;28;20039;-74
2022/06/15 10:42:59;;;;;;;4.85;3.13;;;29.50;60.00;;;;;;4957756;28;20063;-73
2022/06/15 10:45:30;;;;;;;6.40;3.63;;;29.50;61.70;;;;;;4957676;28;20062;-73
2022/06/15 10:48:03;;;;;;;5.00;3.17;;;29.70;62.10;;;;;;4957168;28;20078;-74
2022/06/15 10:50:40;;;;;;;5.22;3.30;;;29.70;62.00;;;;;;4957379;28;20402;-73
2022/06/15 10:53:26;;;;;;;7.10;3.83;;;30.10;64.90;;;;;;4957770;28;20047;-74
2022/06/15 11:02:07;;;;;;;5.82;3.30;;;30.10;59.40;;;;;;4955944;28;20102;-75
2022/06/15 11:04:58;;;;;;;6.15;3.00;;;30.80;58.30;;;;;;4966024;28;20051;-73
2022/06/15 11:07:25;;;;;;;5.03;3.30;;;31.30;55.70;;;;;;4975726;28;20167;-73
2022/06/15 11:09:54;;;;;;;6.63;2.92;;;31.40;56.70;;;;;;4953545;28;20043;-73
2022/06/15 11:12:25;;;;;;;6.40;2.88;;;31.70;55.20;;;;;;4957392;28;20038;-73
2022/06/15 11:14:56;;;;;;;5.35;2.63;;;31.70;53.20;;;;;;4976599;28;20031;-73
2022/06/15 11:20:41;;;;;;;5.10;2.88;;;31.80;56.30;;;;;;4976761;28;20505;-73
2022/06/15 11:23:21;;;;;;;7.43;3.25;;;31.80;53.70;;;;;;4974488;28;20039;-73
2022/06/15 11:25:53;;;;;;;6.55;2.90;;;31.50;54.70;;;;;;4954916;28;20032;-73
2022/06/15 11:28:29;;;;;;;4.38;3.10;;;31.40;52.90;;;;;;4956697;28;20123;-73
2022/06/15 11:31:04;;;;;;;5.85;3.20;;;31.70;54.00;;;;;;4956930;28;20042;-74
2022/06/15 11:33:55;;;;;;;7.53;2.78;;;31.90;54.50;;;;;;4954208;28;20067;-74
2022/06/15 11:36:36;;;;;;;4.90;2.97;;;31.80;52.50;;;;;;4964531;28;20043;-75
2022/06/15 11:39:19;;;;;;;5.05;2.95;;;31.60;58.30;;;;;;4974672;28;20043;-75
2022/06/15 11:41:54;;;;;;;4.97;2.90;;;31.80;53.30;;;;;;4975967;28;20059;-74
2022/06/15 11:44:30;;;;;;;6.85;2.70;;;32.20;51.30;;;;;;4975000;28;20114;-74
2022/06/15 11:47:18;;;;;;;5.00;2.15;;;31.60;52.20;;;;;;4974957;28;20103;-74
2022/06/15 11:49:53;;;;;;;3.75;2.33;;;31.90;50.60;;;;;;4975598;28;20502;-75
2022/06/15 11:52:27;;;;;;;4.28;2.50;;;32.10;50.30;;;;;;4975678;28;20042;-74
2022/06/15 11:55:09;;;;;;;5.00;2.63;;;32.00;50.00;;;;;;4970758;28;20118;-74
2022/06/15 11:58:10;;;;;;;5.20;2.90;;;31.80;49.80;;;;;;4970357;28;20043;-74
2022/06/15 12:00:51;;;;;;;3.03;2.20;;;32.00;48.10;;;;;;4976591;28;20054;-74
2022/06/15 12:03:25;;;;;;;6.05;2.20;;;31.90;54.50;;;;;;4971379;28;20051;-74
2022/06/15 12:05:54;;;;;;;4.43;3.53;;;32.00;51.60;;;;;;4975354;28;20058;-74
2022/06/15 12:08:36;;;;;;;6.18;2.10;;;32.30;52.50;;;;;;4974510;28;20042;-74
2022/06/15 12:14:07;;;;;;;2.58;2.03;;;32.60;47.60;;;;;;4968434;28;20044;-74
2022/06/15 12:16:39;;;;;;;5.60;2.20;;;32.80;54.00;;;;;;4953643;28;20031;-74
2022/06/15 12:19:31;;;;;;;4.68;2.03;;;32.10;46.90;;;;;;4975439;28;20035;-74
2022/06/15 12:22:22;;;;;;;4.05;2.20;;;31.80;48.50;;;;;;4975583;28;20072;-74
2022/06/15 12:25:08;;;;;;;3.10;1.80;;;32.60;46.60;;;;;;4964890;28;20580;-74
2022/06/15 12:27:39;;;;;;;2.40;1.88;;;33.00;51.80;;;;;;4975057;28;20039;-74
2022/06/15 12:30:05;;;;;;;3.30;1.90;;;33.20;45.60;;;;;;4975367;28;20032;-74
2022/06/15 12:32:37;;;;;;;3.03;2.03;;;33.20;46.10;;;;;;4974175;28;20031;-74
2022/06/15 12:35:45;;;;;;;3.58;1.80;;;32.80;49.50;;;;;;4976270;28;20039;-74
2022/06/15 12:38:30;;;;;;;3.95;2.00;;;33.10;44.30;;;;;;4978866;28;20053;-73
2022/06/15 12:42:09;;;;;;;3.15;2.13;;;33.30;44.50;;;;;;4978629;28;20129;-73
2022/06/15 12:43:56;;;;;;;5.32;1.77;;;33.20;46.70;;;;;;4978271;28;20043;-74
2022/06/15 12:46:23;;;;;;;3.25;1.95;;;33.20;45.70;;;;;;4978470;28;20517;-74
2022/06/15 12:49:14;;;;;;;4.63;1.80;;;33.30;45.30;;;;;;4978665;28;20042;-74
2022/06/15 12:51:55;;;;;;;3.25;1.95;;;33.30;43.00;;;;;;4978831;28;20040;-74
2022/06/15 12:54:34;;;;;;;3.03;1.88;;;33.50;44.70;;;;;;4978430;28;20047;-74
2022/06/15 12:57:25;;;;;;;3.53;1.90;;;33.70;44.30;;;;;;4977972;28;20079;-74
2022/06/15 13:00:19;;;;;;;3.38;2.00;;;34.00;43.40;;;;;;4978318;28;20035;-74
2022/06/15 13:02:57;;;;;;;5.10;2.15;;;34.10;45.90;;;;;;4978599;28;20429;-74
2022/06/15 13:05:25;;;;;;;5.00;2.20;;;34.50;44.60;;;;;;4978362;28;20097;-76
2022/06/15 13:08:22;;;;;;;3.40;2.00;;;35.00;43.20;;;;;;4977736;28;20125;-74
2022/06/15 13:10:53;;;;;;;4.57;2.15;;;35.20;44.10;;;;;;4978442;28;20493;-74
2022/06/15 13:13:29;;;;;;;4.75;2.30;;;35.60;46.40;;;;;;4978589;28;20040;-75
2022/06/15 13:15:59;;;;;;;6.10;3.33;;;36.10;43.30;;;;;;4977976;28;20128;-76
2022/06/15 13:18:50;;;;;;;2.50;1.80;;;36.60;41.90;;;;;;4978059;28;20031;-75
2022/06/15 13:21:21;;;;;;;3.22;2.47;;;36.80;43.10;;;;;;4978420;28;20035;-75
2022/06/15 13:24:08;;;;;;;5.63;2.22;;;37.00;40.70;;;;;;4978464;28;20047;-75
2022/06/15 13:26:36;;;;;;;7.70;2.60;;;36.70;42.60;;;;;;4977246;28;20073;-75
2022/06/15 13:29:03;;;;;;;3.78;2.20;;;36.10;42.10;;;;;;4978088;28;20035;-75
2022/06/15 13:31:48;;;;;;;3.30;2.20;;;36.20;43.60;;;;;;4977182;28;20413;-75
2022/06/15 13:34:37;;;;;;;8.18;2.15;;;37.20;44.20;;;;;;4975430;28;20039;-75
2022/06/15 13:37:14;;;;;;;5.75;2.10;;;37.10;43.10;;;;;;4977205;28;20042;-75
2022/06/15 13:39:43;;;;;;;5.55;2.25;;;37.30;40.80;;;;;;4977578;28;20042;-75
2022/06/15 13:42:23;;;;;;;6.60;2.45;;;37.70;43.00;;;;;;4976344;28;20525;-75
2022/06/15 13:44:52;;;;;;;4.60;2.10;;;37.60;39.40;;;;;;4976174;28;20094;-75
2022/06/15 13:47:20;;;;;;;4.57;2.00;;;38.80;42.30;;;;;;4976468;28;20106;-75
2022/06/15 13:49:48;;;;;;;4.03;2.10;;;38.20;37.50;;;;;;4977680;28;20038;-75
2022/06/15 13:52:21;;;;;;;7.25;2.10;;;38.30;38.10;;;;;;4977464;28;20429;-75
2022/06/15 13:55:13;;;;;;;3.97;2.25;;;38.90;38.00;;;;;;4953132;28;20509;-75
2022/06/15 13:57:55;;;;;;;7.18;1.98;;;40.10;39.70;;;;;;4968373;28;20043;-80
2022/06/15 14:00:39;;;;;;;3.17;2.00;;;40.70;32.80;;;;;;4973856;28;20070;-76
2022/06/15 14:03:16;;;;;;;3.47;2.10;;;41.40;37.80;;;;;;4939673;28;20123;-76
2022/06/15 14:05:42;;;;;;;3.33;2.08;;;41.80;31.00;;;;;;4938890;28;20044;-75
2022/06/15 14:08:49;;;;;;;3.58;1.70;;;41.00;31.00;;;;;;4940995;28;20047;-82
2022/06/15 14:11:47;;;;;;;2.22;1.90;;;41.50;31.70;;;;;;4955194;28;20056;-75
2022/06/15 14:14:39;;;;;;;3.20;2.20;;;41.10;33.60;;;;;;4952896;28;20407;-76
2022/06/15 14:17:37;;;;;;;3.30;2.10;;;41.40;32.20;;;;;;4954995;28;20410;-76
2022/06/15 14:20:28;;;;;;;3.08;2.10;;;42.40;38.80;;;;;;4958440;28;20635;-76
2022/06/15 14:22:57;;;;;;;5.53;2.30;;;42.20;30.30;;;;;;4959922;28;20052;-75
2022/06/15 14:25:22;;;;;;;4.93;2.30;;;42.00;33.50;;;;;;4957905;28;20078;-74
2022/06/15 14:27:59;;;;;;;3.83;2.00;;;42.50;32.60;;;;;;4974839;28;20066;-82
2022/06/15 14:30:33;;;;;;;2.58;2.03;;;42.70;34.60;;;;;;4958474;28;20533;-74
2022/06/15 14:33:07;;;;;;;4.72;2.15;;;42.70;31.70;;;;;;4957295;28;20040;-74
2022/06/15 14:35:33;;;;;;;4.45;2.30;;;42.40;30.60;;;;;;4957765;28;20500;-79
2022/06/15 14:38:03;;;;;;;4.28;2.35;;;43.20;31.80;;;;;;4955957;28;20540;-75
2022/06/15 14:40:42;;;;;;;2.78;2.08;;;42.10;31.80;;;;;;4957651;28;20042;-75
2022/06/15 14:43:10;;;;;;;3.65;2.10;;;42.30;33.40;;;;;;4957297;28;20857;-72
2022/06/15 14:45:45;;;;;;;4.85;2.10;;;41.90;32.80;;;;;;4957414;28;20569;-72
2022/06/15 14:48:34;;;;;;;2.63;1.90;;;42.00;30.60;;;;;;4957417;28;20067;-72
2022/06/15 14:51:14;;;;;;;2.28;1.90;;;43.30;32.40;;;;;;4957469;28;20086;-76
2022/06/15 14:53:55;;;;;;;5.50;2.00;;;43.30;31.20;;;;;;4956008;28;20044;-77
2022/06/15 14:56:23;;;;;;;5.93;2.30;;;44.10;28.50;;;;;;4976137;28;20039;-71
2022/06/15 14:59:07;;;;;;;3.70;1.88;;;44.20;27.70;;;;;;4976453;28;20031;-71
2022/06/15 15:01:35;;;;;;;3.00;2.20;;;43.80;29.60;;;;;;4976087;28;20035;-72
2022/06/15 15:04:14;;;;;;;3.97;2.25;;;44.10;29.40;;;;;;4976014;28;20150;-71
2022/06/15 15:06:49;;;;;;;4.15;2.22;;;43.50;29.50;;;;;;4975569;28;20106;-71
2022/06/15 15:09:14;;;;;;;5.03;2.35;;;43.90;28.50;;;;;;4976786;28;20449;-71
2022/06/15 15:11:40;;;;;;;3.40;2.35;;;44.80;28.50;;;;;;4976543;28;20083;-71
2022/06/15 15:14:26;;;;;;;2.78;2.58;;;45.50;30.80;;;;;;4976002;28;20122;-72
2022/06/15 15:17:00;;;;;;;3.72;2.60;;;45.20;28.50;;;;;;4975510;28;20043;-72
2022/06/15 15:19:35;;;;;;;3.00;2.50;;;45.00;27.40;;;;;;4976496;28;20069;-71
2022/06/15 15:22:11;;;;;;;2.60;2.40;;;44.60;27.50;;;;;;4975833;28;20098;-73
2022/06/15 15:24:44;;;;;;;6.85;2.40;;;44.30;29.20;;;;;;4976549;28;20126;-73
2022/06/15 15:27:17;;;;;;;3.58;2.30;;;45.20;28.40;;;;;;4976056;28;20074;-73
2022/06/15 15:35:30;;;;;;;3.80;2.13;;;43.90;28.90;;;;;;4959877;28;20092;-77
2022/06/15 15:37:56;;;;;;;2.65;1.90;;;43.80;29.30;;;;;;4954899;28;20038;-76
2022/06/15 15:40:25;;;;;;;2.75;2.10;;;44.50;29.50;;;;;;4953607;28;20070;-75
2022/06/15 15:42:52;;;;;;;3.47;2.00;;;43.90;29.70;;;;;;4958578;28;20043;-77
2022/06/15 15:45:21;;;;;;;4.28;2.10;;;44.30;30.00;;;;;;4950482;28;20043;-82
2022/06/15 15:47:48;;;;;;;2.50;2.30;;;46.10;26.30;;;;;;4955485;28;20116;-76
2022/06/15 15:50:15;;;;;;;5.90;3.50;;;46.10;28.00;;;;;;4957241;28;20042;-85
2022/06/15 15:52:43;;;;;;;3.22;2.17;;;45.60;27.30;;;;;;4959244;28;20497;-78
2022/06/15 15:55:10;;;;;;;3.85;2.00;;;45.40;26.00;;;;;;4953777;28;20062;-78
2022/06/15 15:57:39;;;;;;;5.50;2.20;;;45.30;26.70;;;;;;4958039;28;20125;-78
2022/06/15 16:00:06;;;;;;;5.20;2.50;;;44.90;26.90;;;;;;4957496;28;20527;-83
2022/06/15 16:02:36;;;;;;;3.78;2.13;;;44.90;25.40;;;;;;4939757;28;20047;-76
2022/06/15 16:05:03;;;;;;;3.05;2.00;;;45.10;25.30;;;;;;4946498;28;20067;-81
2022/06/15 16:07:31;;;;;;;2.20;1.88;;;44.50;26.00;;;;;;4952303;28;20091;-79
2022/06/15 16:09:59;;;;;;;2.17;1.98;;;44.40;26.00;;;;;;4966756;28;20035;-76
2022/06/15 16:12:29;;;;;;;5.03;2.13;;;45.20;26.70;;;;;;4971563;28;20035;-77
2022/06/15 16:14:55;;;;;;;2.95;1.80;;;45.10;27.90;;;;;;4952736;28;20509;-77
2022/06/15 16:17:22;;;;;;;3.30;2.45;;;44.90;28.40;;;;;;4947045;28;20039;-76
2022/06/15 16:19:49;;;;;;;4.43;2.25;;;45.00;25.80;;;;;;4957699;28;20036;-78
2022/06/15 16:22:15;;;;;;;2.40;1.95;;;44.40;27.50;;;;;;4956816;28;20075;-79
2022/06/15 16:24:42;;;;;;;2.60;1.90;;;44.00;26.50;;;;;;4957353;28;20039;-80
2022/06/15 16:27:08;;;;;;;2.15;1.75;;;44.10;25.70;;;;;;4957604;28;20039;-78
2022/06/15 16:29:35;;;;;;;3.35;1.90;;;43.40;26.00;;;;;;4945234;28;20062;-79
2022/06/15 16:32:01;;;;;;;3.40;1.75;;;42.20;26.90;;;;;;4940730;28;20116;-79
2022/06/15 16:34:29;;;;;;;2.72;1.90;;;40.30;27.90;;;;;;4948842;28;20176;-77
2022/06/15 16:37:15;;;;;;;4.22;1.83;;;38.90;29.90;;;;;;4957496;28;20048;-80
2022/06/15 16:39:40;;;;;;;3.65;2.17;;;37.30;34.00;;;;;;4941855;29;20047;-78
2022/06/15 16:42:06;;;;;;;3.47;1.85;;;36.10;34.30;;;;;;4938259;28;20064;-77
2022/06/15 16:44:32;;;;;;;4.38;2.00;;;35.20;33.40;;;;;;4937514;28;20051;-77
2022/06/15 16:46:58;;;;;;;2.78;1.88;;;34.70;35.80;;;;;;4944136;28;20032;-78
2022/06/15 16:49:23;;;;;;;5.03;2.00;;;34.00;37.70;;;;;;4956900;28;20119;-78
2022/06/15 16:51:49;;;;;;;3.25;2.13;;;33.70;37.90;;;;;;4956425;28;20040;-77
2022/06/15 16:54:15;;;;;;;5.35;2.40;;;33.50;38.90;;;;;;4955972;28;20044;-78
2022/06/15 16:56:46;;;;;;;3.35;2.30;;;33.30;39.70;;;;;;4943081;28;20036;-78
2022/06/15 16:59:17;;;;;;;3.40;2.15;;;32.80;40.30;;;;;;4957031;28;20035;-78
2022/06/15 17:01:43;;;;;;;4.65;2.10;;;32.50;41.80;;;;;;4955521;28;20043;-77
2022/06/15 17:04:09;;;;;;;3.92;2.30;;;32.30;39.90;;;;;;4956415;28;20407;-77
2022/06/15 17:06:37;;;;;;;4.05;2.38;;;32.10;43.00;;;;;;4955204;28;20050;-77
2022/06/15 17:09:04;;;;;;;4.75;2.67;;;31.90;44.60;;;;;;4956657;28;20515;-77
2022/06/15 17:11:34;;;;;;;2.90;2.20;;;31.70;45.50;;;;;;4964786;28;20028;-78
2022/06/15 17:13:59;;;;;;;4.40;2.60;;;31.70;42.50;;;;;;4963513;28;20777;-82
2022/06/15 17:16:25;;;;;;;2.78;2.17;;;31.60;48.50;;;;;;4952837;28;20047;-77
2022/06/15 17:18:51;;;;;;;3.15;2.50;;;31.30;45.70;;;;;;4937459;28;20036;-77
2022/06/15 17:21:17;;;;;;;2.30;2.05;;;31.20;44.30;;;;;;4934892;29;20569;-77
2022/06/15 17:23:48;;;;;;;3.55;2.38;;;31.30;44.50;;;;;;4939845;28;20044;-77
2022/06/15 17:26:17;;;;;;;4.15;2.42;;;31.10;47.40;;;;;;4953860;28;20027;-77
2022/06/15 17:28:47;;;;;;;3.08;2.17;;;30.80;44.60;;;;;;4957969;28;20036;-77
2022/06/15 17:31:22;;;;;;;3.95;2.35;;;30.70;47.00;;;;;;4959518;28;20127;-76
2022/06/15 17:33:49;;;;;;;5.00;2.28;;;30.50;45.70;;;;;;4961145;28;20053;-76
2022/06/15 17:36:18;;;;;;;4.63;2.47;;;30.50;48.50;;;;;;4945872;28;20092;-77
2022/06/15 17:38:44;;;;;;;6.38;2.60;;;30.40;46.70;;;;;;4959859;28;20476;-77
2022/06/15 17:41:11;;;;;;;3.63;2.67;;;30.20;47.50;;;;;;4958672;28;20040;-77